Latest Weather Observations for Young

IDN60801

Issued at 1:32 pm EST Monday 27 April 2015 (issued every 30 minutes, with the page automatically refreshed every 10 minutes)

About weather observations | Map of weather stations | Latest weather observations for NSW | Other Formats
Station Details ID: 073138 Name: YOUNG AIRPORT Lat: -34.25 Lon: 148.25 Height: 379.6 m
Data from the previous 72 hours. | See also: Recent months at Young
Date/Time
EST
Temp
°C
App
Temp
°C
Dew
Point
Rel
Hum
%
Delta-T
°C
Wind Press
QNH
hPa
Press
MSL
hPa
Rain
since 9 am
mm
Dir
 
Spd
km/h
Gust
km/h
Spd
kts
Gust
kts
27/01:30pm 15.0 11.2 4.1 48 5.1 SW 13 19 7 10 1020.1 1019.6 0.0
27/01:00pm 14.9 11.5 5.7 54 4.5 SW 13 24 7 13 1020.3 1019.7 0.0
27/12:30pm 13.4 9.3 4.3 54 4.2 SSW 15 24 8 13 1020.7 1020.2 0.0
27/12:00pm 14.0 10.0 6.6 61 3.6 WSW 17 24 9 13 1021.0 1020.5 0.0
27/11:30am 13.7 9.6 6.1 60 3.7 SW 17 22 9 12 1021.4 1020.9 0.0
27/11:00am 12.5 9.2 6.3 66 3.0 SSW 13 17 7 9 1021.5 1021.0 0.0
27/10:30am 11.9 9.0 6.4 69 2.7 SW 11 17 6 9 1021.6 1021.1 0.0
27/10:00am 11.1 7.8 6.6 74 2.2 SW 13 19 7 10 1021.6 1021.1 0.0
27/09:30am 10.0 7.3 7.3 83 1.3 SSW 11 15 6 8 1021.3 1020.8 0.0
27/09:00am 8.0 5.8 6.0 87 0.9 S 7 13 4 7 1021.3 1020.8 0.0
27/08:30am 7.6 6.4 6.4 92 0.6 ENE 2 7 1 4 1021.3 1020.8 0.0
27/08:00am 6.3 4.9 5.3 93 0.4 N 2 6 1 3 1021.0 1020.5 0.0
27/07:30am 4.9 2.6 4.6 98 0.1 N 6 9 3 5 1020.8 1020.3 0.0
27/07:00am 3.2 1.7 2.8 97 0.2 CALM 0 4 0 2 1020.4 1019.8 0.0
27/06:30am 3.4 1.9 2.8 96 0.2 CALM 0 0 0 0 1019.8 1019.3 0.0
27/06:00am 3.9 2.5 3.5 97 0.2 CALM 0 0 0 0 1019.4 1018.9 0.0
27/05:30am 3.8 2.3 2.9 94 0.4 CALM 0 0 0 0 1019.1 1018.6 0.0
27/05:00am 5.4 2.9 4.7 95 0.3 SW 7 11 4 6 1019.0 1018.5 0.0
27/04:30am 4.9 2.8 4.0 94 0.4 WSW 4 7 2 4 1018.8 1018.3 0.0
27/04:00am 5.1 3.1 4.4 95 0.3 W 4 7 2 4 1018.5 1018.0 0.0
27/03:30am 4.8 2.1 3.6 92 0.5 WNW 7 9 4 5 1018.3 1017.8 0.0
27/03:00am 5.8 3.2 4.4 91 0.6 WSW 7 11 4 6 1018.3 1017.8 0.0
27/02:30am 4.9 2.4 4.0 94 0.4 W 6 11 3 6 1018.2 1017.7 0.0
27/02:00am 4.5 2.7 3.6 94 0.4 W 2 9 1 5 1018.4 1017.9 0.0
27/01:30am 4.3 2.1 3.3 93 0.4 WNW 4 7 2 4 1018.5 1018.0 0.0
27/01:00am 5.0 3.3 3.8 92 0.5 NNE 2 7 1 4 1018.5 1018.0 0.0
27/12:30am 6.3 4.4 4.9 91 0.6 WNW 4 9 2 5 1018.4 1017.9 0.0
27/12:00am 6.4 5.2 4.6 88 0.8 CALM 0 0 0 0 1018.5 1018.0 0.0
 
Date/Time
EST
Temp
°C
App
Temp
°C
Dew
Point
Rel
Hum
%
Delta-T
°C
Wind Press
QNH
hPa
Press
MSL
hPa
Rain
since 9 am
mm
Dir
 
Spd
km/h
Gust
km/h
Spd
kts
Gust
kts
26/11:30pm 8.2 6.4 5.5 83 1.2 WNW 4 7 2 4 1018.6 1018.1 0.0
26/11:00pm 8.8 6.6 5.5 80 1.5 WSW 6 13 3 7 1018.6 1018.1 0.0
26/10:30pm 9.8 6.8 6.2 78 1.7 W 11 20 6 11 1018.7 1018.2 0.0
26/10:00pm 10.0 7.0 6.2 77 1.8 WSW 11 17 6 9 1018.6 1018.1 0.0
26/09:30pm 10.3 7.0 6.3 76 1.9 WSW 13 24 7 13 1018.5 1018.0 0.0
26/09:00pm 11.1 8.7 6.8 75 2.1 SW 9 19 5 10 1018.5 1018.0 0.0
26/08:30pm 11.4 8.2 6.9 74 2.2 SW 13 20 7 11 1018.2 1017.7 0.0
26/08:00pm 10.9 8.8 6.6 75 2.1 WSW 7 13 4 7 1017.8 1017.2 0.0
26/07:30pm 10.9 9.1 7.2 78 1.8 W 6 15 3 8 1017.7 1017.1 0.0
26/07:00pm 11.5 9.8 7.6 77 1.9 W 6 9 3 5 1017.2 1016.7 0.0
26/06:30pm 11.5 9.6 7.4 76 2.0 WSW 7 11 4 6 1016.9 1016.4 0.0
26/05:30pm 13.5 9.7 7.7 68 2.9 WSW 17 26 9 14 1016.1 1015.6 0.0
26/05:00pm 14.1 11.2 8.1 67 3.0 WSW 13 22 7 12 1015.9 1015.4 0.0
26/04:30pm 15.6 12.1 8.6 63 3.6 WSW 17 28 9 15 1015.5 1014.9 0.0
26/04:00pm 16.5 12.9 9.7 64 3.6 WSW 19 30 10 16 1015.3 1014.7 0.0
26/03:30pm 16.0 12.7 9.4 65 3.5 W 17 28 9 15 1014.8 1014.2 0.0
26/03:00pm 16.0 12.7 9.7 66 3.3 WSW 17 28 9 15 1014.7 1014.1 0.0
26/02:30pm 16.3 13.1 9.9 66 3.4 W 17 26 9 14 1014.2 1013.7 0.0
26/02:00pm 16.3 13.0 9.7 65 3.5 WSW 17 28 9 15 1014.0 1013.5 0.0
26/01:30pm 15.2 10.6 9.6 69 3.0 WSW 24 32 13 17 1014.0 1013.5 0.0
26/01:00pm 15.0 11.3 10.0 72 2.7 W 20 32 11 17 1013.8 1013.3 0.0
26/12:30pm 14.7 11.1 9.7 72 2.6 WSW 19 28 10 15 1013.8 1013.3 0.0
26/12:00pm 14.3 11.5 9.9 75 2.3 W 15 24 8 13 1014.0 1013.5 0.0
26/11:30am 13.0 9.8 9.8 81 1.7 SW 17 28 9 15 1014.2 1013.7 0.0
26/11:00am 12.0 8.7 9.4 84 1.3 WSW 17 20 9 11 1014.2 1013.7 0.0
26/10:30am 11.5 8.0 8.9 84 1.3 WSW 17 28 9 15 1014.0 1013.5 0.0
26/10:00am 11.3 8.4 9.6 89 0.9 WSW 15 24 8 13 1013.9 1013.4 0.0
26/09:30am 10.9 8.7 9.3 90 0.8 WSW 11 22 6 12 1013.8 1013.3 0.0
26/09:00am 10.8 8.1 9.1 89 0.9 WSW 13 22 7 12 1013.6 1013.1 1.2
26/08:30am 10.3 7.3 9.1 92 0.6 SW 15 20 8 11 1013.4 1012.8 1.2
26/08:00am 10.0 7.8 9.2 95 0.4 WSW 11 17 6 9 1012.8 1012.2 1.2
26/07:30am 9.9 7.2 9.1 95 0.4 WSW 13 17 7 9 1012.6 1012.0 1.2
26/07:00am 10.0 7.7 9.1 94 0.5 WSW 11 19 6 10 1012.0 1011.4 1.2
26/06:30am 9.8 7.5 8.9 94 0.5 WSW 11 20 6 11 1011.5 1011.0 1.2
26/06:00am 9.9 6.5 9.0 94 0.5 SW 17 26 9 14 1011.3 1010.8 1.2
26/05:30am 9.9 6.9 9.1 95 0.4 WSW 15 24 8 13 1011.0 1010.4 1.2
26/05:00am 10.0 7.7 9.1 94 0.5 SW 11 17 6 9 1010.9 1010.3 1.2
26/04:30am 10.1 7.9 9.2 94 0.5 WSW 11 19 6 10 1010.5 1009.9 1.2
26/04:00am 9.9 8.5 9.0 94 0.5 W 6 9 3 5 1010.3 1009.7 1.2
26/03:30am 9.9 8.0 9.0 94 0.5 W 9 13 5 7 1010.1 1009.5 1.2
26/03:00am 9.9 8.3 8.8 93 0.6 W 7 11 4 6 1010.0 1009.4 1.2
26/02:30am 9.8 8.2 8.7 93 0.5 W 7 15 4 8 1010.0 1009.4 1.2
26/02:00am 9.8 8.2 8.7 93 0.6 W 7 13 4 7 1010.1 1009.5 1.2
26/01:30am 9.8 8.2 8.9 94 0.5 W 7 13 4 7 1010.2 1009.6 1.2
26/01:00am 9.7 8.1 8.6 93 0.5 W 7 15 4 8 1010.0 1009.4 1.2
26/12:30am 10.0 8.4 8.8 92 0.6 WNW 7 9 4 5 1010.0 1009.4 0.8
26/12:00am 10.4 10.2 9.0 91 0.7 CALM 0 7 0 4 1010.2 1009.6 0.4
 
Date/Time
EST
Temp
°C
App
Temp
°C
Dew
Point
Rel
Hum
%
Delta-T
°C
Wind Press
QNH
hPa
Press
MSL
hPa
Rain
since 9 am
mm
Dir
 
Spd
km/h
Gust
km/h
Spd
kts
Gust
kts
25/11:30pm 10.4 8.0 8.5 88 0.9 WSW 11 19 6 10 1010.0 1009.4 0.4
25/11:00pm 10.7 9.2 9.0 89 0.9 WSW 7 11 4 6 1010.0 1009.4 0.4
25/10:30pm 11.0 9.5 9.3 89 0.9 SW 7 13 4 7 1009.9 1009.3 0.4
25/10:00pm 11.3 9.9 9.6 89 0.9 SSW 7 15 4 8 1009.9 1009.3 0.2
25/09:30pm 11.4 10.0 9.7 89 0.9 S 7 9 4 5 1010.0 1009.4 0.0
25/09:00pm 11.5 8.5 9.2 86 1.2 SSE 15 20 8 11 1009.5 1008.9 0.0
25/08:30pm 11.7 9.7 8.6 81 1.6 SSW 9 13 5 7 1009.5 1008.9 0.0
25/08:00pm 12.0 10.3 8.3 78 1.9 SW 7 13 4 7 1009.0 1008.4 0.0
25/07:30pm 12.0 8.8 8.5 79 1.8 SSW 15 20 8 11 1008.3 1007.7 0.0
25/07:00pm 12.2 8.1 8.7 79 1.8 SSW 20 32 11 17 1008.2 1007.6 0.0
25/06:30pm 12.3 8.6 9.3 82 1.5 SSW 19 24 10 13 1008.1 1007.5 0.0
25/06:00pm 12.8 9.1 10.2 84 1.4 SSW 20 32 11 17 1007.3 1006.7 0.0
25/05:30pm 12.8 9.2 10.0 83 1.5 SW 19 24 10 13 1007.2 1006.6 0.0
25/05:00pm 13.8 9.3 8.4 70 2.8 SW 22 33 12 18 1006.9 1006.3 0.0
25/04:30pm 15.9 14.7 10.2 69 3.1 W 7 13 4 7 1006.4 1005.7 0.0
25/04:00pm 15.2 13.6 10.2 72 2.7 NW 9 13 5 7 1005.8 1005.2 0.0
25/03:30pm 15.5 13.7 9.4 67 3.2 WNW 9 13 5 7 1005.8 1005.2 0.0
25/03:00pm 16.0 13.4 9.4 65 3.5 WNW 13 24 7 13 1005.9 1005.3 0.0
25/02:30pm 17.2 13.3 8.6 57 4.5 WNW 19 26 10 14 1005.8 1005.2 0.0
25/02:00pm 18.1 14.5 9.7 58 4.5 WNW 19 30 10 16 1005.5 1004.9 0.0
25/01:30pm 18.5 15.1 9.3 55 4.9 WNW 17 24 9 13 1005.6 1005.0 0.0
25/01:00pm 18.5 16.3 10.8 61 4.3 WNW 13 24 7 13 1005.8 1005.2 0.0
25/12:30pm 17.3 14.6 10.4 64 3.7 NW 15 24 8 13 1006.2 1005.6 0.0
25/12:00pm 18.3 15.4 10.9 62 4.1 NW 17 30 9 16 1006.8 1006.1 0.0
25/11:30am 17.3 15.0 10.4 64 3.7 NNW 13 19 7 10 1007.2 1006.6 0.0
25/11:00am 16.6 15.4 11.5 72 2.8 N 9 13 5 7 1007.5 1006.9 0.0
25/10:30am 16.2 13.4 10.1 67 3.3 N 15 20 8 11 1007.5 1006.9 0.0
25/10:00am 16.1 14.8 11.1 72 2.7 N 9 15 5 8 1007.5 1006.9 0.0
25/09:30am 16.3 15.0 11.2 72 2.8 N 9 13 5 7 1007.9 1007.3 0.0
25/09:00am 14.5 14.9 11.3 81 1.7 CALM 0 0 0 0 1008.0 1007.4 0.0
25/08:30am 13.3 12.9 11.2 87 1.1 SW 4 7 2 4 1008.0 1007.4 0.0
25/08:00am 10.6 10.0 10.3 98 0.2 SW 4 7 2 4 1008.0 1007.4 0.0
25/07:30am 9.2 8.3 9.1 99 0.1 WSW 4 9 2 5 1007.9 1007.3 0.0
25/07:00am 8.2 7.7 7.9 98 0.1 CALM 0 0 0 0 1007.6 1007.0 0.0
25/06:30am 8.2 7.7 7.8 97 0.2 CALM 0 0 0 0 1007.6 1007.0 0.0
25/06:00am 8.7 8.3 8.4 98 0.1 CALM 0 0 0 0 1007.5 1006.9 0.0
25/05:30am 8.4 8.0 8.1 98 0.1 CALM 0 6 0 3 1007.5 1006.9 0.0
25/05:00am 8.2 6.6 7.9 98 0.1 SSW 6 7 3 4 1007.6 1007.0 0.0
25/04:30am 8.2 6.3 7.6 96 0.3 WSW 7 11 4 6 1007.6 1007.0 0.0
25/04:00am 8.9 7.8 8.5 97 0.2 SSW 4 7 2 4 1007.5 1006.9 0.0
25/03:30am 8.6 7.1 8.3 98 0.1 SSW 6 7 3 4 1007.6 1007.0 0.0
25/03:00am 8.2 6.4 7.9 98 0.1 S 7 7 4 4 1007.7 1007.1 0.0
25/02:30am 7.6 6.6 7.2 97 0.2 SSW 2 7 1 4 1007.9 1007.3 0.0
25/02:00am 7.7 5.9 7.1 96 0.3 SSW 6 9 3 5 1008.0 1007.4 0.0
25/01:30am 8.5 6.8 7.7 95 0.4 WSW 6 7 3 4 1008.3 1007.7 0.0
25/01:00am 9.5 9.2 8.6 94 0.4 CALM 0 0 0 0 1008.4 1007.8 0.0
25/12:30am 10.1 9.9 9.2 94 0.5 CALM 0 2 0 1 1008.5 1007.9 0.0
25/12:00am 10.2 9.0 9.4 95 0.4 SSW 6 7 3 4 1008.6 1008.0 0.0
 
Date/Time
EST
Temp
°C
App
Temp
°C
Dew
Point
Rel
Hum
%
Delta-T
°C
Wind Press
QNH
hPa
Press
MSL
hPa
Rain
since 9 am
mm
Dir
 
Spd
km/h
Gust
km/h
Spd
kts
Gust
kts
24/11:30pm 10.1 8.9 9.5 96 0.3 S 6 7 3 4 1008.7 1008.1 0.0
24/11:00pm 9.3 9.0 8.5 95 0.4 CALM 0 0 0 0 1008.8 1008.2 0.0
24/10:30pm 9.2 8.8 8.3 94 0.4 CALM 0 0 0 0 1009.0 1008.4 0.0
24/10:00pm 9.2 8.7 8.0 92 0.6 CALM 0 0 0 0 1009.2 1008.6 0.0
24/09:30pm 10.1 9.8 8.5 90 0.8 CALM 0 0 0 0 1008.9 1008.3 0.0
24/09:00pm 10.9 10.6 8.7 86 1.1 CALM 0 0 0 0 1008.8 1008.2 0.0
24/08:30pm 12.3 11.7 9.0 80 1.7 WNW 2 6 1 3 1008.6 1008.0 0.0
24/08:00pm 13.3 12.8 9.2 76 2.1 WNW 2 7 1 4 1008.4 1007.8 0.0
24/07:30pm 14.7 12.6 9.7 72 2.6 NW 11 13 6 7 1008.1 1007.5 0.0
24/07:00pm 13.2 13.3 10.2 82 1.6 CALM 0 0 0 0 1008.0 1007.4 0.0
24/06:30pm 13.4 12.1 9.3 76 2.1 NW 6 7 3 4 1007.8 1007.2 0.0
24/06:00pm 15.4 13.6 9.5 68 3.1 NW 9 9 5 5 1007.5 1006.9 0.0
24/05:30pm 16.5 14.8 9.7 64 3.6 NW 9 11 5 6 1007.3 1006.7 0.0
24/05:00pm 18.9 17.9 10.2 57 4.8 W 6 13 3 7 1007.0 1006.4 0.0
24/04:30pm 18.7 15.8 9.8 56 4.8 NW 15 24 8 13 1006.8 1006.1 0.0
24/04:00pm 18.8 16.5 10.4 58 4.6 NW 13 20 7 11 1006.8 1006.1 0.0
24/03:30pm 19.1 17.0 11.2 60 4.4 NW 13 17 7 9 1006.9 1006.3 0.0
24/03:00pm 18.3 16.7 11.6 65 3.7 WNW 11 15 6 8 1006.9 1006.3 0.0
24/02:30pm 18.1 15.8 11.7 66 3.6 NW 15 20 8 11 1007.1 1006.5 0.0
24/02:00pm 18.1 16.2 11.9 67 3.5 NW 13 19 7 10 1007.1 1006.5 0.0

Other Formats:

Comma delimited format used in spreadsheet applications
http://www.bom.gov.au/fwo/IDN60801/IDN60801.94712.axf

JavaScript Object Notation format (JSON) in row-major order
http://www.bom.gov.au/fwo/IDN60801/IDN60801.94712.json